sensor_id;sensor_type;location;lat;lon;timestamp;P1;P2;P0
53698;PMS7003;68408;53.952;27.612;2024-01-10T07:42:49;8.3;6.2;4.9
53698;PMS7003;68408;53.952;27.612;2024-01-10T07:47:23;8.4;6.3;4.8
53698;PMS7003;68408;53.952;27.612;2024-01-10T07:53:05;7.5;5.3;4.3
53698;PMS7003;68408;53.952;27.612;2024-01-10T07:57:39;6.4;4.8;3.8
53698;PMS7003;68408;53.952;27.612;2024-01-10T08:02:23;6.5;5.2;4.4
53698;PMS7003;68408;53.952;27.612;2024-01-10T08:07:23;7.2;5;4
53698;PMS7003;68408;53.952;27.612;2024-01-10T08:12:57;7;5.4;4.2
53698;PMS7003;68408;53.952;27.612;2024-01-10T08:18:03;7.6;6.1;4.7
53698;PMS7003;68408;53.952;27.612;2024-01-10T08:22:37;6.4;5.5;4.4
53698;PMS7003;68408;53.952;27.612;2024-01-10T08:27:51;6.9;5.4;4.2
53698;PMS7003;68408;53.952;27.612;2024-01-10T08:32:37;6.8;5.2;4.1
53698;PMS7003;68408;53.952;27.612;2024-01-10T08:37:43;7.8;6.1;4.4
53698;PMS7003;68408;53.952;27.612;2024-01-10T08:43:03;7.4;5.1;4
53698;PMS7003;68408;53.952;27.612;2024-01-10T08:47:23;7.4;6.3;4.8
53698;PMS7003;68408;53.952;27.612;2024-01-10T08:52:23;7;5;3.7
53698;PMS7003;68408;53.952;27.612;2024-01-10T08:57:31;6.1;4.7;3.7
53698;PMS7003;68408;53.952;27.612;2024-01-10T09:02:54;6.5;4.6;4.1
53698;PMS7003;68408;53.952;27.612;2024-01-10T09:08:05;5.9;4.2;3.2
53698;PMS7003;68408;53.952;27.612;2024-01-10T09:12:31;6.9;5.3;4.3
53698;PMS7003;68408;53.952;27.612;2024-01-10T09:17:53;8.7;6.3;4.9
53698;PMS7003;68408;53.952;27.612;2024-01-10T09:22:24;6.8;5.1;4.1
53698;PMS7003;68408;53.952;27.612;2024-01-10T09:27:23;8.6;6.3;5.1
53698;PMS7003;68408;53.952;27.612;2024-01-10T09:32:59;7.7;5.8;4.8
53698;PMS7003;68408;53.952;27.612;2024-01-10T09:37:41;6.4;4.5;3.6
53698;PMS7003;68408;53.952;27.612;2024-01-10T09:42:23;6.1;4.6;3.5
53698;PMS7003;68408;53.952;27.612;2024-01-10T09:47:31;6.5;4.7;3.8
53698;PMS7003;68408;53.952;27.612;2024-01-10T09:52:58;4.2;3.1;2.3
53698;PMS7003;68408;53.952;27.612;2024-01-10T09:58:06;4.6;2.8;2.1
53698;PMS7003;68408;53.952;27.612;2024-01-10T10:02:39;4.7;3.1;2.7
53698;PMS7003;68408;53.952;27.612;2024-01-10T10:07:43;4;3.1;2.4
53698;PMS7003;68408;53.952;27.612;2024-01-10T10:12:43;3.4;2.9;2.3
53698;PMS7003;68408;53.952;27.612;2024-01-10T10:17:23;3.8;2.8;2
53698;PMS7003;68408;53.952;27.612;2024-01-10T10:23:04;3.1;2.2;1.7
53698;PMS7003;68408;53.952;27.612;2024-01-10T10:27:31;3.2;2.5;2.1
53698;PMS7003;68408;53.952;27.612;2024-01-10T10:32:39;4.4;2.9;2.2
53698;PMS7003;68408;53.952;27.612;2024-01-10T10:37:31;3.4;2.3;1.9
53698;PMS7003;68408;53.952;27.612;2024-01-10T10:42:31;3.6;2.2;1.7
53698;PMS7003;68408;53.952;27.612;2024-01-10T10:48:06;3.2;2.5;1.8
53698;PMS7003;68408;53.952;27.612;2024-01-10T10:52:40;3.5;2.6;2.2
53698;PMS7003;68408;53.952;27.612;2024-01-10T10:57:53;3.9;2.8;2.1
53698;PMS7003;68408;53.952;27.612;2024-01-10T11:02:39;3.9;2.7;2
53698;PMS7003;68408;53.952;27.612;2024-01-10T11:07:43;4.6;4.1;3.4
53698;PMS7003;68408;53.952;27.612;2024-01-10T11:13:18;3.8;2.8;2.2
53698;PMS7003;68408;53.952;27.612;2024-01-10T11:17:44;4.5;2.3;1.9
53698;PMS7003;68408;53.952;27.612;2024-01-10T11:22:39;4.4;3.5;2.8
53698;PMS7003;68408;53.952;27.612;2024-01-10T11:27:39;5.2;3.7;3
53698;PMS7003;68408;53.952;27.612;2024-01-10T11:33:21;6;4;3.1
53698;PMS7003;68408;53.952;27.612;2024-01-10T11:38:05;5;4;3.3
53698;PMS7003;68408;53.952;27.612;2024-01-10T11:42:40;5.3;4.3;3.5
53698;PMS7003;68408;53.952;27.612;2024-01-10T11:47:53;5.5;4.2;3.4
53698;PMS7003;68408;53.952;27.612;2024-01-10T11:52:32;6;4.4;3.6
53698;PMS7003;68408;53.952;27.612;2024-01-10T11:57:25;5.9;4.1;3.3
53698;PMS7003;68408;53.952;27.612;2024-01-10T12:03:01;6.6;5.1;4
53698;PMS7003;68408;53.952;27.612;2024-01-10T12:07:30;7.1;5.5;4.3
53698;PMS7003;68408;53.952;27.612;2024-01-10T12:12:51;7;5.1;4.1
53698;PMS7003;68408;53.952;27.612;2024-01-10T12:17:25;7.6;6.1;4.8
53698;PMS7003;68408;53.952;27.612;2024-01-10T12:22:31;6.8;5.6;4.6
53698;PMS7003;68408;53.952;27.612;2024-01-10T12:28:04;7.3;5.7;4.6
53698;PMS7003;68408;53.952;27.612;2024-01-10T12:32:37;8.7;7.4;5.8
53698;PMS7003;68408;53.952;27.612;2024-01-10T12:37:39;10.7;7.9;5.8
53698;PMS7003;68408;53.952;27.612;2024-01-10T12:42:23;9.4;7.4;6
53698;PMS7003;68408;53.952;27.612;2024-01-10T12:47:53;11.6;9.9;7.4
53698;PMS7003;68408;53.952;27.612;2024-01-10T12:53:03;7.8;6.9;5.5
53698;PMS7003;68408;53.952;27.612;2024-01-10T12:57:37;10.1;7.2;5.7
53698;PMS7003;68408;53.952;27.612;2024-01-10T13:02:23;7.1;5.9;5
53698;PMS7003;68408;53.952;27.612;2024-01-10T13:07:23;7.9;5.9;5
53698;PMS7003;68408;53.952;27.612;2024-01-10T13:12:53;6.8;5.4;4.4
53698;PMS7003;68408;53.952;27.612;2024-01-10T13:18:04;6.2;5.1;4.2
53698;PMS7003;68408;53.952;27.612;2024-01-10T13:22:23;5.5;3.8;2.9
53698;PMS7003;68408;53.952;27.612;2024-01-10T13:27:50;5.6;4.2;3.6
53698;PMS7003;68408;53.952;27.612;2024-01-10T13:32:44;4.4;3.2;2.4
53698;PMS7003;68408;53.952;27.612;2024-01-10T13:37:35;5.6;4.4;3.6
53698;PMS7003;68408;53.952;27.612;2024-01-10T13:43:04;6.9;4.9;4.3
53698;PMS7003;68408;53.952;27.612;2024-01-10T13:47:27;5.2;3.8;3.3
53698;PMS7003;68408;53.952;27.612;2024-01-10T13:52:31;4.3;2.7;2.2
53698;PMS7003;68408;53.952;27.612;2024-01-10T13:57:32;4.2;3.5;2.9
53698;PMS7003;68408;53.952;27.612;2024-01-10T14:02:52;4.9;3.1;2.5
53698;PMS7003;68408;53.952;27.612;2024-01-10T14:08:04;4.1;2.8;2.2
53698;PMS7003;68408;53.952;27.612;2024-01-10T14:12:23;3.2;2;1.4
53698;PMS7003;68408;53.952;27.612;2024-01-10T14:17:51;2.3;2;1.7
53698;PMS7003;68408;53.952;27.612;2024-01-10T14:22:29;2.3;1.9;1.6
53698;PMS7003;68408;53.952;27.612;2024-01-10T14:27:41;2.9;1.9;1.5
53698;PMS7003;68408;53.952;27.612;2024-01-10T14:33:01;4.1;2.8;2.4
53698;PMS7003;68408;53.952;27.612;2024-01-10T14:37:48;3.2;2.7;1.9
53698;PMS7003;68408;53.952;27.612;2024-01-10T14:42:23;3.9;2.7;2.1
53698;PMS7003;68408;53.952;27.612;2024-01-10T14:47:30;3.3;2.4;1.8
53698;PMS7003;68408;53.952;27.612;2024-01-10T14:52:52;4.5;2.8;2.3
53698;PMS7003;68408;53.952;27.612;2024-01-10T14:58:04;4.9;2.8;2.3
53698;PMS7003;68408;53.952;27.612;2024-01-10T15:02:37;4.1;3;2.5
53698;PMS7003;68408;53.952;27.612;2024-01-10T15:07:25;3.5;2.5;2
53698;PMS7003;68408;53.952;27.612;2024-01-10T15:12:35;3.1;2.4;1.7
53698;PMS7003;68408;53.952;27.612;2024-01-10T15:17:41;2.9;1.6;1.2
53698;PMS7003;68408;53.952;27.612;2024-01-10T15:22:43;3.4;2.3;1.8
53698;PMS7003;68408;53.952;27.612;2024-01-10T15:27:29;3.6;2.1;1.8
53698;PMS7003;68408;53.952;27.612;2024-01-10T15:32:29;2.1;1.4;1.1
53698;PMS7003;68408;53.952;27.612;2024-01-10T15:38:02;2.3;1.3;1
53698;PMS7003;68408;53.952;27.612;2024-01-10T15:42:47;2.2;1;0.7
53698;PMS7003;68408;53.952;27.612;2024-01-10T15:48:06;1.6;1;0.9
53698;PMS7003;68408;53.952;27.612;2024-01-10T15:53:03;0.9;0.6;0.4
53698;PMS7003;68408;53.952;27.612;2024-01-10T15:57:51;0.9;0.5;0.3
53698;PMS7003;68408;53.952;27.612;2024-01-10T16:02:53;1.1;0.4;0.3
53698;PMS7003;68408;53.952;27.612;2024-01-10T16:07:23;0.7;0.2;0.2
53698;PMS7003;68408;53.952;27.612;2024-01-10T16:12:51;0.7;0.3;0.3
53698;PMS7003;68408;53.952;27.612;2024-01-10T16:17:35;0.2;0.1;0.1
53698;PMS7003;68408;53.952;27.612;2024-01-10T16:22:53;0.4;0.1;0.1
53698;PMS7003;68408;53.952;27.612;2024-01-10T16:28:04;0.4;0.2;0.1
53698;PMS7003;68408;53.952;27.612;2024-01-10T16:32:40;0.7;0.2;0.1
53698;PMS7003;68408;53.952;27.612;2024-01-10T16:38:04;0.7;0.5;0.3
53698;PMS7003;68408;53.952;27.612;2024-01-10T16:43:04;0.4;0.2;0.1
53698;PMS7003;68408;53.952;27.612;2024-01-10T16:47:52;0.6;0.4;0.2
53698;PMS7003;68408;53.952;27.612;2024-01-10T16:52:46;0.5;0.2;0.2
53698;PMS7003;68408;53.952;27.612;2024-01-10T16:57:44;0.7;0.1;0.1
53698;PMS7003;68408;53.952;27.612;2024-01-10T17:02:52;0.2;0;0
53698;PMS7003;68408;53.952;27.612;2024-01-10T17:07:31;0.7;0.4;0.3
53698;PMS7003;68408;53.952;27.612;2024-01-10T17:12:24;1.7;0.7;0.7
53698;PMS7003;68408;53.952;27.612;2024-01-10T17:18:02;1.6;0.7;0.6
53698;PMS7003;68408;53.952;27.612;2024-01-10T17:22:32;1.7;1.1;0.9
53698;PMS7003;68408;53.952;27.612;2024-01-10T17:28:02;1.3;0.9;0.7
53698;PMS7003;68408;53.952;27.612;2024-01-10T17:33:02;1.2;0.5;0.4
53698;PMS7003;68408;53.952;27.612;2024-01-10T17:37:52;1.1;0.7;0.5
53698;PMS7003;68408;53.952;27.612;2024-01-10T17:42:52;1.5;1.2;0.7
53698;PMS7003;68408;53.952;27.612;2024-01-10T17:47:40;2;0.9;0.7
53698;PMS7003;68408;53.952;27.612;2024-01-10T17:52:40;1.2;1;0.8
53698;PMS7003;68408;53.952;27.612;2024-01-10T17:57:40;0.9;0.3;0.3
53698;PMS7003;68408;53.952;27.612;2024-01-10T18:02:24;0.5;0.4;0.3
53698;PMS7003;68408;53.952;27.612;2024-01-10T18:08:04;0.5;0.5;0.4
53698;PMS7003;68408;53.952;27.612;2024-01-10T18:12:40;0.5;0.3;0.2
53698;PMS7003;68408;53.952;27.612;2024-01-10T18:18:02;0.5;0.3;0.1
53698;PMS7003;68408;53.952;27.612;2024-01-10T18:22:58;1.1;0.5;0.4
53698;PMS7003;68408;53.952;27.612;2024-01-10T18:27:40;1.5;0.7;0.7
53698;PMS7003;68408;53.952;27.612;2024-01-10T18:32:52;1.2;0.8;0.6
53698;PMS7003;68408;53.952;27.612;2024-01-10T18:37:36;1;0.7;0.6
53698;PMS7003;68408;53.952;27.612;2024-01-10T18:42:52;1.1;0.7;0.5
53698;PMS7003;68408;53.952;27.612;2024-01-10T18:47:24;1.2;0.9;0.7
53698;PMS7003;68408;53.952;27.612;2024-01-10T18:52:24;1.4;0.7;0.5
53698;PMS7003;68408;53.952;27.612;2024-01-10T18:58:04;1.6;0.9;0.8
53698;PMS7003;68408;53.952;27.612;2024-01-10T19:02:32;1.3;0.9;0.8
53698;PMS7003;68408;53.952;27.612;2024-01-10T19:08:04;0.9;0.8;0.5
53698;PMS7003;68408;53.952;27.612;2024-01-10T19:13:06;1.4;0.6;0.5
53698;PMS7003;68408;53.952;27.612;2024-01-10T19:17:40;1.7;0.8;0.6
53698;PMS7003;68408;53.952;27.612;2024-01-10T19:22:52;0.7;0.6;0.5
53698;PMS7003;68408;53.952;27.612;2024-01-10T19:27:42;0.5;0.4;0.4
53698;PMS7003;68408;53.952;27.612;2024-01-10T19:32:52;1.2;0.5;0.3
53698;PMS7003;68408;53.952;27.612;2024-01-10T19:37:32;0.6;0.5;0.4
53698;PMS7003;68408;53.952;27.612;2024-01-10T19:42:36;1.3;0.9;0.7
53698;PMS7003;68408;53.952;27.612;2024-01-10T19:48:02;1.7;0.5;0.4
53698;PMS7003;68408;53.952;27.612;2024-01-10T19:52:40;0.6;0.4;0.2
53698;PMS7003;68408;53.952;27.612;2024-01-10T19:58:04;0.1;0.1;0
53698;PMS7003;68408;53.952;27.612;2024-01-10T20:02:42;0.4;0.1;0.1
53698;PMS7003;68408;53.952;27.612;2024-01-10T20:08:04;0.6;0.1;0.1
53698;PMS7003;68408;53.952;27.612;2024-01-10T20:13:06;0.4;0;0
53698;PMS7003;68408;53.952;27.612;2024-01-10T20:57:50;0;0;0
53698;PMS7003;68408;53.952;27.612;2024-01-10T21:03:04;0.2;0.1;0
53698;PMS7003;68408;53.952;27.612;2024-01-10T21:07:52;0.2;0;0
53698;PMS7003;68408;53.952;27.612;2024-01-10T21:13:04;0.2;0;0
53698;PMS7003;68408;53.952;27.612;2024-01-10T21:17:58;0.1;0;0
53698;PMS7003;68408;53.952;27.612;2024-01-10T21:22:52;0.2;0;0
53698;PMS7003;68408;53.952;27.612;2024-01-10T21:27:34;0.1;0;0
53698;PMS7003;68408;53.952;27.612;2024-01-10T21:32:42;0.1;0;0
53698;PMS7003;68408;53.952;27.612;2024-01-10T21:37:52;0.4;0.2;0.2
53698;PMS7003;68408;53.952;27.612;2024-01-10T21:42:50;0;0;0
53698;PMS7003;68408;53.952;27.612;2024-01-10T21:48:04;0.3;0.1;0
53698;PMS7003;68408;53.952;27.612;2024-01-10T21:53:04;0.1;0;0
53698;PMS7003;68408;53.952;27.612;2024-01-10T21:57:44;0.4;0;0
53698;PMS7003;68408;53.952;27.612;2024-01-10T22:02:32;0.4;0;0
53698;PMS7003;68408;53.952;27.612;2024-01-10T22:07:42;0;0;0
53698;PMS7003;68408;53.952;27.612;2024-01-10T22:12:24;0.1;0;0
53698;PMS7003;68408;53.952;27.612;2024-01-10T22:17:50;0;0;0
53698;PMS7003;68408;53.952;27.612;2024-01-10T22:22:42;0.1;0;0
53698;PMS7003;68408;53.952;27.612;2024-01-10T22:28:04;0.1;0;0
53698;PMS7003;68408;53.952;27.612;2024-01-10T22:33:04;0;0;0
53698;PMS7003;68408;53.952;27.612;2024-01-10T22:38:04;0.1;0;0
53698;PMS7003;68408;53.952;27.612;2024-01-10T22:43:02;0;0;0
53698;PMS7003;68408;53.952;27.612;2024-01-10T22:47:52;0;0;0
53698;PMS7003;68408;53.952;27.612;2024-01-10T22:52:44;0;0;0
53698;PMS7003;68408;53.952;27.612;2024-01-10T22:57:24;0.1;0;0
53698;PMS7003;68408;53.952;27.612;2024-01-10T23:02:30;0.2;0;0
53698;PMS7003;68408;53.952;27.612;2024-01-10T23:07:50;0.1;0;0
53698;PMS7003;68408;53.952;27.612;2024-01-10T23:12:42;0;0;0
53698;PMS7003;68408;53.952;27.612;2024-01-10T23:18:04;0.1;0;0
53698;PMS7003;68408;53.952;27.612;2024-01-10T23:22:50;0;0;0
53698;PMS7003;68408;53.952;27.612;2024-01-10T23:28:04;0.1;0;0
53698;PMS7003;68408;53.952;27.612;2024-01-10T23:33:02;0.1;0;0
53698;PMS7003;68408;53.952;27.612;2024-01-10T23:37:44;0.1;0;0
53698;PMS7003;68408;53.952;27.612;2024-01-10T23:42:32;0.2;0;0
53698;PMS7003;68408;53.952;27.612;2024-01-10T23:47:24;0.4;0;0
53698;PMS7003;68408;53.952;27.612;2024-01-10T23:52:30;0.1;0;0
53698;PMS7003;68408;53.952;27.612;2024-01-10T23:58:02;0.1;0;0
